createdAt,value
2022-10-28T00:03:12.991Z,101712.16
2022-10-28T00:08:15.211Z,101724.44
2022-10-28T00:13:17.398Z,101679.63
2022-10-28T00:18:19.636Z,101711.50
2022-10-28T00:23:21.830Z,101678.59
2022-10-28T00:28:24.063Z,101696.09
2022-10-28T00:33:26.233Z,101702.88
2022-10-28T00:38:31.347Z,101695.56
2022-10-28T00:43:39.797Z,101703.59
2022-10-28T00:48:45.932Z,101675.72
2022-10-28T00:53:50.621Z,101697.91
2022-10-28T00:58:57.478Z,101679.97
2022-10-28T01:04:01.179Z,101692.00
2022-10-28T01:09:03.347Z,101704.22
2022-10-28T01:14:33.089Z,101697.88
2022-10-28T01:20:08.900Z,101697.38
2022-10-28T01:25:44.068Z,101687.00
2022-10-28T01:31:26.253Z,101690.13
2022-10-28T01:36:47.315Z,101669.78
2022-10-28T01:41:55.275Z,101690.47
2022-10-28T01:46:57.554Z,101682.25
2022-10-28T01:52:06.374Z,101675.38
2022-10-28T01:57:10.394Z,101679.28
2022-10-28T02:02:12.645Z,101655.69
2022-10-28T02:07:15.346Z,101681.00
2022-10-28T02:12:20.576Z,101680.19
2022-10-28T02:18:00.102Z,101678.31
2022-10-28T02:23:11.886Z,101676.63
2022-10-28T02:28:39.173Z,101667.72
2022-10-28T02:33:43.277Z,101675.00
2022-10-28T02:38:55.126Z,101645.69
2022-10-28T02:44:03.462Z,101683.28
2022-10-28T02:49:09.664Z,101675.06
2022-10-28T02:54:16.624Z,101683.56
2022-10-28T02:59:18.951Z,101674.22
2022-10-28T03:04:21.157Z,101687.47
2022-10-28T03:09:23.530Z,101693.91
2022-10-28T03:14:25.745Z,101692.03
2022-10-28T03:19:28.115Z,101688.41
2022-10-28T03:24:30.392Z,101680.13
2022-10-28T03:29:32.853Z,101703.31
2022-10-28T03:34:35.069Z,101700.25
2022-10-28T03:39:37.482Z,101675.78
2022-10-28T03:44:39.845Z,101668.59
2022-10-28T03:49:42.282Z,101705.31
2022-10-28T03:54:44.509Z,101695.41
2022-10-28T03:59:46.892Z,101709.81
2022-10-28T04:04:49.246Z,101679.75
2022-10-28T04:09:51.852Z,101693.31
2022-10-28T04:14:54.073Z,101699.97
2022-10-28T04:19:56.348Z,101696.72
2022-10-28T04:24:58.640Z,101703.28
2022-10-28T04:30:00.867Z,101697.31
2022-10-28T04:35:03.085Z,101682.44
2022-10-28T04:40:06.791Z,101696.44
2022-10-28T04:45:09.750Z,101699.25
2022-10-28T04:50:11.983Z,101681.50
2022-10-28T04:55:14.280Z,101698.09
2022-10-28T05:00:16.727Z,101671.16
2022-10-28T05:05:19.481Z,101676.69
2022-10-28T05:10:21.736Z,101723.41
2022-10-28T05:15:23.991Z,101714.00
2022-10-28T05:20:26.157Z,101723.41
2022-10-28T05:25:28.741Z,101726.47
2022-10-28T05:30:30.996Z,101740.34
2022-10-28T05:35:33.965Z,101744.88
2022-10-28T05:40:36.422Z,101745.63
2022-10-28T05:45:38.852Z,101757.22
2022-10-28T05:50:41.190Z,101746.34
2022-10-28T05:55:46.822Z,101762.69
2022-10-28T06:00:50.162Z,101776.41
2022-10-28T06:05:52.621Z,101771.84
2022-10-28T06:10:54.342Z,101764.28
2022-10-28T06:15:56.759Z,101739.69
2022-10-28T06:20:59.644Z,101794.09
2022-10-28T06:26:03.761Z,101800.66
2022-10-28T06:31:08.231Z,101807.75
2022-10-28T06:36:10.602Z,101797.19
2022-10-28T06:41:12.808Z,101805.31
2022-10-28T06:46:15.118Z,101813.81
2022-10-28T06:51:18.851Z,101813.69
2022-10-28T06:56:21.381Z,101829.88
2022-10-28T07:01:23.760Z,101814.75
2022-10-28T07:06:26.007Z,101821.47
2022-10-28T07:11:28.240Z,101823.16
2022-10-28T07:16:30.429Z,101813.03
2022-10-28T07:21:32.828Z,101823.16
2022-10-28T07:26:35.101Z,101815.66
2022-10-28T07:31:37.299Z,101831.69
2022-10-28T07:36:39.633Z,101812.56
2022-10-28T07:41:41.909Z,101839.00
2022-10-28T07:46:44.172Z,101835.69
2022-10-28T07:51:46.479Z,101816.47
2022-10-28T07:56:48.747Z,101842.75
2022-10-28T08:01:50.987Z,101835.72
2022-10-28T08:11:57.530Z,101824.53
2022-10-28T08:16:59.814Z,101801.13
2022-10-28T08:22:03.414Z,101817.28
2022-10-28T08:27:05.835Z,101814.56
2022-10-28T08:32:11.197Z,101803.69
2022-10-28T08:37:13.580Z,101808.94
2022-10-28T08:42:41.336Z,101822.72
2022-10-28T08:48:15.813Z,101810.38
2022-10-28T08:53:27.635Z,101800.53
2022-10-28T08:58:33.637Z,101819.53
2022-10-28T09:03:42.592Z,101818.25
2022-10-28T09:08:49.109Z,101815.25
2022-10-28T09:14:04.820Z,101798.28
2022-10-28T09:19:15.591Z,101804.53
2022-10-28T09:24:40.471Z,101801.53
2022-10-28T09:30:06.089Z,101795.19
2022-10-28T09:35:16.732Z,101797.19
2022-10-28T09:40:30.220Z,101789.00
2022-10-28T09:45:36.377Z,101786.28
2022-10-28T09:50:39.077Z,101765.97
2022-10-28T09:55:41.389Z,101773.19
2022-10-28T10:00:43.705Z,101771.22
2022-10-28T10:05:50.311Z,101760.72
2022-10-28T10:10:55.921Z,101769.16
2022-10-28T10:16:05.463Z,101757.34
2022-10-28T10:21:07.637Z,101743.88
2022-10-28T10:26:13.118Z,101743.44
2022-10-28T10:31:33.553Z,101727.16
2022-10-28T10:36:35.851Z,101732.88
2022-10-28T10:41:44.605Z,101739.09
2022-10-28T10:47:07.455Z,101738.03
2022-10-28T10:52:23.351Z,101717.53
2022-10-28T10:57:26.865Z,101714.72
2022-10-28T11:02:40.081Z,101700.66
2022-10-28T11:07:51.202Z,101721.28
2022-10-28T11:12:58.613Z,101710.59
2022-10-28T11:18:25.654Z,101710.69
2022-10-28T11:23:55.286Z,101684.25
2022-10-28T11:29:14.316Z,101693.44
2022-10-28T11:34:34.537Z,101698.81
2022-10-28T11:40:34.186Z,101678.09
2022-10-28T11:45:51.541Z,101666.44
2022-10-28T11:50:59.929Z,101690.13
2022-10-28T11:56:20.504Z,101681.09
2022-10-28T12:01:25.561Z,101677.91
2022-10-28T12:06:58.981Z,101666.75
2022-10-28T12:12:12.867Z,101669.88
2022-10-28T12:17:50.547Z,101650.53
2022-10-28T12:22:58.682Z,101644.53
2022-10-28T12:28:06.138Z,101645.97
2022-10-28T12:33:16.802Z,101639.22
2022-10-28T12:38:47.501Z,101636.47
2022-10-28T12:44:14.847Z,101636.59
2022-10-28T12:49:25.823Z,101630.53
2022-10-28T12:54:42.570Z,101636.66
2022-10-28T12:59:53.008Z,101594.09
2022-10-28T13:04:56.010Z,101619.59
2022-10-28T13:10:02.934Z,101621.13
2022-10-28T13:15:26.767Z,101625.56
2022-10-28T13:20:39.528Z,101630.63
2022-10-28T13:25:47.459Z,101627.84
2022-10-28T13:31:04.571Z,101615.81
2022-10-28T13:36:11.719Z,101619.94
2022-10-28T13:41:29.263Z,101591.91
2022-10-28T13:46:56.481Z,101622.28
2022-10-28T13:52:16.116Z,101613.50
2022-10-28T13:57:24.605Z,101611.13
2022-10-28T14:02:40.622Z,101618.41
2022-10-28T14:07:55.075Z,101618.75
2022-10-28T14:13:09.745Z,101608.78
2022-10-28T14:18:43.136Z,101614.28
2022-10-28T14:23:42.889Z,101618.31
2022-10-28T14:28:45.168Z,101624.63
2022-10-28T14:34:13.129Z,101625.78
2022-10-28T14:39:54.107Z,101620.56
2022-10-28T14:45:18.307Z,101613.94
2022-10-28T14:50:25.297Z,101624.41
2022-10-28T14:55:32.253Z,101621.28
2022-10-28T15:00:41.362Z,101620.84
2022-10-28T15:05:43.581Z,101600.78
2022-10-28T15:10:50.029Z,101623.59
2022-10-28T15:15:58.220Z,101621.75
2022-10-28T15:21:12.910Z,101628.72
2022-10-28T15:26:17.174Z,101614.47
2022-10-28T15:31:19.349Z,101627.41
2022-10-28T15:36:24.077Z,101602.69
2022-10-28T15:41:26.310Z,101624.19
2022-10-28T15:46:30.428Z,101607.03
2022-10-28T15:51:32.899Z,101616.44
2022-10-28T15:56:54.435Z,101629.28
2022-10-28T16:01:59.115Z,101622.25
2022-10-28T16:07:08.466Z,101633.38
2022-10-28T16:12:21.632Z,101652.06
2022-10-28T16:17:27.485Z,101644.09
2022-10-28T16:22:31.661Z,101619.47
2022-10-28T16:27:34.204Z,101632.63
2022-10-28T16:32:42.097Z,101648.56
2022-10-28T16:37:47.338Z,101643.53
2022-10-28T16:42:52.125Z,101641.44
2022-10-28T16:48:00.683Z,101667.16
2022-10-28T16:53:02.940Z,101668.00
2022-10-28T16:58:05.155Z,101656.91
2022-10-28T17:03:10.418Z,101667.16
2022-10-28T17:08:13.077Z,101645.66
2022-10-28T17:13:15.908Z,101646.06
2022-10-28T17:18:18.119Z,101659.22
2022-10-28T17:23:23.666Z,101678.41
2022-10-28T17:28:26.338Z,101683.59
2022-10-28T17:33:28.677Z,101686.44
2022-10-28T17:38:30.985Z,101677.59
2022-10-28T17:43:33.170Z,101661.06
2022-10-28T17:48:36.594Z,101684.03
2022-10-28T17:53:39.176Z,101679.75
2022-10-28T17:58:41.972Z,101688.50
2022-10-28T18:03:44.289Z,101669.38
2022-10-28T18:08:47.048Z,101691.78
2022-10-28T18:13:52.120Z,101697.22
2022-10-28T18:18:55.925Z,101695.94
2022-10-28T18:24:04.230Z,101681.81
2022-10-28T18:29:10.504Z,101670.44
2022-10-28T18:34:12.856Z,101673.75
2022-10-28T18:39:16.791Z,101676.84
2022-10-28T18:44:21.973Z,101670.88
2022-10-28T18:49:24.337Z,101699.75
2022-10-28T18:54:26.496Z,101707.97
2022-10-28T18:59:28.699Z,101672.47
2022-10-28T19:04:31.044Z,101688.34
2022-10-28T19:09:33.328Z,101700.31
2022-10-28T19:14:35.532Z,101710.25
2022-10-28T19:19:39.343Z,101713.28
2022-10-28T19:24:41.830Z,101714.53
2022-10-28T19:29:44.076Z,101713.19
2022-10-28T19:34:46.623Z,101648.34
2022-10-28T19:39:52.927Z,101712.72
2022-10-28T19:44:58.117Z,101712.44
2022-10-28T19:50:00.604Z,101732.84
2022-10-28T19:55:03.151Z,101716.84
2022-10-28T20:00:06.211Z,101728.31
2022-10-28T20:05:09.100Z,101716.38
2022-10-28T20:10:11.399Z,101727.19
2022-10-28T20:15:13.826Z,101752.09
2022-10-28T20:20:16.323Z,101723.25
2022-10-28T20:25:18.644Z,101732.75
2022-10-28T20:30:21.251Z,101759.69
2022-10-28T20:35:23.911Z,101748.97
2022-10-28T20:40:26.296Z,101739.75
2022-10-28T20:45:28.950Z,101749.03
2022-10-28T20:50:31.361Z,101751.38
2022-10-28T20:55:33.720Z,101751.72
2022-10-28T21:00:36.068Z,101721.88
2022-10-28T21:05:39.061Z,101748.44
2022-10-28T21:10:41.684Z,101736.88
2022-10-28T21:15:46.049Z,101734.56
2022-10-28T21:20:48.291Z,101763.34
2022-10-28T21:26:05.475Z,101754.53
2022-10-28T21:31:13.812Z,101762.47
2022-10-28T21:36:19.623Z,101699.38
2022-10-28T21:41:22.707Z,101758.47
2022-10-28T21:46:24.938Z,101709.03
2022-10-28T21:51:27.142Z,101717.13
2022-10-28T21:56:29.444Z,101712.88
2022-10-28T22:01:33.332Z,101712.88
2022-10-28T22:06:35.812Z,101716.84
2022-10-28T22:11:38.083Z,101729.34
2022-10-28T22:16:40.421Z,101727.78
2022-10-28T22:21:43.837Z,101726.47
2022-10-28T22:26:46.185Z,101722.28
2022-10-28T22:31:48.559Z,101709.19
2022-10-28T22:36:50.853Z,101727.78
2022-10-28T22:41:53.160Z,101733.13
2022-10-28T22:46:55.484Z,101720.03
2022-10-28T22:51:57.661Z,101724.66
2022-10-28T22:56:59.868Z,101734.34
2022-10-28T23:02:02.188Z,101725.91
2022-10-28T23:07:04.722Z,101717.81
2022-10-28T23:12:07.878Z,101713.22
2022-10-28T23:17:10.117Z,101711.50
2022-10-28T23:22:12.721Z,101706.16
2022-10-28T23:27:15.016Z,101720.22
2022-10-28T23:32:17.197Z,101692.97
2022-10-28T23:37:19.481Z,101673.78
2022-10-28T23:42:21.921Z,101713.56
2022-10-28T23:47:24.132Z,101701.59
2022-10-28T23:52:26.455Z,101679.16
2022-10-28T23:57:28.743Z,101690.97
